createdAt,value
2018-07-30T00:01:18.257Z,16.6
2018-07-30T00:07:13.245Z,18.36
2018-07-30T00:13:08.270Z,17.96
2018-07-30T00:19:03.249Z,19.27
2018-07-30T00:24:58.267Z,18.18
2018-07-30T00:30:53.281Z,17.65
2018-07-30T00:36:48.260Z,17.08
2018-07-30T00:42:43.296Z,15.79
2018-07-30T00:48:38.288Z,17.91
2018-07-30T00:54:33.316Z,18.29
2018-07-30T01:00:28.298Z,18.02
2018-07-30T01:06:23.289Z,18.81
2018-07-30T01:12:18.380Z,20.01
2018-07-30T01:18:13.314Z,18.13
2018-07-30T01:24:08.300Z,18.6
2018-07-30T01:30:03.317Z,18.35
2018-07-30T01:35:58.285Z,18.52
2018-07-30T01:41:53.312Z,19.57
2018-07-30T01:47:48.308Z,19.15
2018-07-30T01:53:43.368Z,19.46
2018-07-30T01:59:38.301Z,20.05
2018-07-30T02:05:33.310Z,19.78
2018-07-30T02:11:28.330Z,21.38
2018-07-30T02:17:23.336Z,20.59
2018-07-30T02:23:18.353Z,20.24
2018-07-30T02:29:13.347Z,23.58
2018-07-30T02:35:08.339Z,18.72
2018-07-30T02:41:03.397Z,19.03
2018-07-30T02:46:58.357Z,18.8
2018-07-30T02:52:53.422Z,18.57
2018-07-30T02:58:48.382Z,17.8
2018-07-30T03:04:43.412Z,18.77
2018-07-30T03:10:38.353Z,19.29
2018-07-30T03:16:33.364Z,18.26
2018-07-30T03:22:28.394Z,18.51
2018-07-30T03:28:23.359Z,18.18
2018-07-30T03:34:18.423Z,20.21
2018-07-30T03:40:13.445Z,17.75
2018-07-30T03:46:08.391Z,18.32
2018-07-30T03:52:03.405Z,18.27
2018-07-30T03:57:58.444Z,17.32
2018-07-30T04:03:53.407Z,16.42
2018-07-30T04:09:48.468Z,17.47
2018-07-30T04:15:43.396Z,19.53
2018-07-30T04:21:38.439Z,18.33
2018-07-30T04:27:33.437Z,18.48
2018-07-30T04:33:28.411Z,18.2
2018-07-30T04:39:23.414Z,18.2
2018-07-30T04:45:18.433Z,23.47
2018-07-30T04:51:13.427Z,23.93
2018-07-30T04:57:08.421Z,23.94
2018-07-30T05:03:03.440Z,24.96
2018-07-30T05:08:58.454Z,23.52
2018-07-30T05:14:53.485Z,24.92
2018-07-30T05:20:48.454Z,27.14
2018-07-30T05:26:43.449Z,43.6
2018-07-30T05:32:38.469Z,41.13
2018-07-30T05:38:33.485Z,24.49
2018-07-30T05:44:28.461Z,20.56
2018-07-30T05:50:23.463Z,20.73
2018-07-30T05:56:18.513Z,19.97
2018-07-30T06:02:13.462Z,19.63
2018-07-30T06:08:08.517Z,20.43
2018-07-30T06:14:03.491Z,20.8
2018-07-30T06:19:58.527Z,21.6
2018-07-30T06:25:53.511Z,20.34
2018-07-30T06:31:48.555Z,20.5
2018-07-30T06:37:43.506Z,21
2018-07-30T06:43:38.499Z,20.95
2018-07-30T06:49:33.510Z,20.69
2018-07-30T06:55:28.485Z,19.37
2018-07-30T07:01:23.513Z,21.31
2018-07-30T07:07:18.522Z,20.12
2018-07-30T07:13:13.520Z,20.84
2018-07-30T07:19:08.581Z,20.03
2018-07-30T07:25:03.512Z,17.79
2018-07-30T07:30:58.509Z,17.57
2018-07-30T07:36:53.533Z,18.16
2018-07-30T07:42:48.513Z,17.77
2018-07-30T07:48:43.558Z,17.15
2018-07-30T07:54:38.559Z,17.11
2018-07-30T08:00:33.532Z,16.77
2018-07-30T08:06:28.548Z,17.02
2018-07-30T08:12:23.566Z,16.77
2018-07-30T08:18:18.567Z,17.8
2018-07-30T08:24:13.564Z,18.27
2018-07-30T08:30:08.617Z,19.69
2018-07-30T08:36:03.589Z,19.27
2018-07-30T08:41:58.573Z,18
2018-07-30T08:47:53.575Z,18.2
2018-07-30T08:53:48.602Z,17.44
2018-07-30T08:59:43.606Z,18.05
2018-07-30T09:05:38.605Z,17.36
2018-07-30T09:11:33.604Z,18.63
2018-07-30T09:17:28.589Z,17.46
2018-07-30T09:23:23.613Z,16.37
2018-07-30T09:29:18.594Z,17.19
2018-07-30T09:35:13.593Z,17.94
2018-07-30T09:41:08.611Z,17.3
2018-07-30T09:47:03.631Z,15.15
2018-07-30T09:52:58.634Z,14.54
2018-07-30T09:58:53.621Z,15.58
2018-07-30T10:04:48.667Z,14.74
2018-07-30T10:10:43.615Z,13.44
2018-07-30T10:16:38.625Z,13.17
2018-07-30T10:22:33.633Z,13.67
2018-07-30T10:28:28.621Z,13.3
2018-07-30T10:34:23.686Z,13.81
2018-07-30T10:40:18.689Z,13.36
2018-07-30T10:46:13.678Z,11.65
2018-07-30T10:52:08.646Z,11.65
2018-07-30T10:58:03.672Z,11.8
2018-07-30T11:03:58.661Z,12.04
2018-07-30T11:09:53.682Z,10.66
2018-07-30T11:15:48.663Z,11.67
2018-07-30T11:21:43.830Z,10.26
2018-07-30T11:27:38.747Z,11.07
2018-07-30T11:33:33.760Z,11.02
2018-07-30T11:39:28.753Z,9.97
2018-07-30T11:45:23.693Z,10.13
2018-07-30T11:51:18.708Z,9.3
2018-07-30T11:57:13.674Z,9.59
2018-07-30T12:03:08.702Z,7.31
2018-07-30T12:09:03.694Z,7.84
2018-07-30T12:14:58.723Z,6.9
2018-07-30T12:20:53.708Z,7.52
2018-07-30T12:26:48.733Z,6.63
2018-07-30T12:32:43.737Z,6.09
2018-07-30T12:38:38.724Z,6.01
2018-07-30T12:44:33.710Z,12.4
2018-07-30T12:50:28.735Z,5.97
2018-07-30T12:56:23.762Z,5.49
2018-07-30T13:02:18.779Z,5.19
2018-07-30T13:08:13.777Z,4.77
2018-07-30T13:14:08.730Z,4.67
2018-07-30T13:20:03.729Z,4.98
2018-07-30T13:25:58.753Z,4.89
2018-07-30T13:31:53.735Z,4.35
2018-07-30T13:37:48.753Z,4.02
2018-07-30T13:43:43.750Z,3.81
2018-07-30T13:49:38.769Z,4.38
2018-07-30T13:55:33.769Z,4.25
2018-07-30T14:01:28.791Z,5.36
2018-07-30T14:07:23.751Z,5.98
2018-07-30T14:13:18.773Z,5.24
2018-07-30T14:19:13.780Z,5.11
2018-07-30T14:25:08.765Z,5.2
2018-07-30T14:31:03.796Z,5.28
2018-07-30T14:36:58.816Z,5.7
2018-07-30T14:42:53.800Z,5.73
2018-07-30T14:48:48.823Z,6.36
2018-07-30T14:54:43.843Z,6.36
2018-07-30T15:00:38.794Z,5.91
2018-07-30T15:06:33.799Z,7.49
2018-07-30T15:12:28.850Z,7.85
2018-07-30T15:18:23.794Z,6.84
2018-07-30T15:24:18.811Z,7.57
2018-07-30T15:30:13.802Z,7.79
2018-07-30T15:36:08.821Z,7.93
2018-07-30T15:42:03.840Z,8.51
2018-07-30T15:47:58.816Z,6.92
2018-07-30T15:53:53.814Z,7.79
2018-07-30T15:59:48.820Z,8.06
2018-07-30T16:05:43.846Z,7.69
2018-07-30T16:11:38.844Z,8.58
2018-07-30T16:17:33.901Z,8.93
2018-07-30T16:23:28.951Z,8.2
2018-07-30T16:29:23.836Z,8.33
2018-07-30T16:35:18.879Z,8.73
2018-07-30T16:41:13.881Z,8.67
2018-07-30T16:47:09.027Z,7.9
2018-07-30T16:53:03.855Z,8.27
2018-07-30T16:58:58.893Z,7.9
2018-07-30T17:04:53.891Z,8.3
2018-07-30T17:10:48.870Z,8.4
2018-07-30T17:16:43.938Z,7.97
2018-07-30T17:22:38.861Z,7.76
2018-07-30T17:28:33.888Z,8.44
2018-07-30T17:34:28.881Z,8.87
2018-07-30T17:40:23.895Z,8.4
2018-07-30T17:46:18.906Z,8.9
2018-07-30T17:52:13.927Z,8.81
2018-07-30T17:58:08.905Z,8.63
2018-07-30T18:04:03.929Z,8.87
2018-07-30T18:09:58.904Z,9.28
2018-07-30T18:15:53.909Z,8.66
2018-07-30T18:21:48.904Z,9.21
2018-07-30T18:27:43.942Z,9.35
2018-07-30T18:33:38.924Z,9.33
2018-07-30T18:39:33.936Z,9.53
2018-07-30T18:45:28.960Z,8.97
2018-07-30T18:51:23.957Z,9.7
2018-07-30T18:57:18.985Z,9.71
2018-07-30T19:03:13.937Z,9.44
2018-07-30T19:09:08.941Z,9.9
2018-07-30T19:15:03.947Z,10.62
2018-07-30T19:20:58.996Z,11.5
2018-07-30T19:26:53.990Z,10.52
2018-07-30T19:32:48.976Z,11.16
2018-07-30T19:38:44.018Z,11.02
2018-07-30T19:44:38.976Z,11.2
2018-07-30T19:50:33.971Z,11.5
2018-07-30T19:56:28.998Z,11.9
2018-07-30T20:02:23.997Z,12.78
2018-07-30T20:08:18.995Z,11.36
2018-07-30T20:14:14.034Z,11.38
2018-07-30T20:20:09.075Z,12
2018-07-30T20:26:03.991Z,12.3
2018-07-30T20:31:59.026Z,12.26
2018-07-30T20:37:54.000Z,12.58
2018-07-30T20:43:49.023Z,14.29
2018-07-30T20:49:44.065Z,13.99
2018-07-30T20:55:39.001Z,19.92
2018-07-30T21:01:34.077Z,18.77
2018-07-30T21:07:29.024Z,20.2
2018-07-30T21:13:24.040Z,20.09
2018-07-30T21:19:19.021Z,16.65
2018-07-30T21:25:14.044Z,19.25
2018-07-30T21:31:09.070Z,17.61
2018-07-30T21:37:04.031Z,15.36
2018-07-30T21:42:59.044Z,15.76
2018-07-30T21:48:54.057Z,15.9
2018-07-30T21:54:49.040Z,17.06
2018-07-30T22:00:44.090Z,16.74
2018-07-30T22:06:39.088Z,16.71
2018-07-30T22:12:34.065Z,16.59
2018-07-30T22:18:29.071Z,17.15
2018-07-30T22:24:24.089Z,17.01
2018-07-30T22:30:19.069Z,19.97
2018-07-30T22:36:14.073Z,18.44
2018-07-30T22:42:09.124Z,21.92
2018-07-30T22:48:04.095Z,19.24
2018-07-30T22:53:59.096Z,20.43
2018-07-30T22:59:54.160Z,18.9
2018-07-30T23:05:49.094Z,22.47
2018-07-30T23:11:44.117Z,20.87
2018-07-30T23:17:39.130Z,21.08
2018-07-30T23:23:34.088Z,20.22
2018-07-30T23:29:29.141Z,20.01
2018-07-30T23:35:24.107Z,23.76
2018-07-30T23:41:19.119Z,21.45
2018-07-30T23:47:14.152Z,21.47
2018-07-30T23:53:09.124Z,19.46
2018-07-30T23:59:04.217Z,20.87
